This is the latest recevied weather packets stored in our database for station/object OK2ZI. If no packets are shown the sender has not sent any weather packets the latest 10 day(s).
| Time | Temp. | Humidity | Pressure | Rain* | Wind** | Luminosity | Snow |
|---|---|---|---|---|---|---|---|
| 1777930327 | 15.56° C | 49% | 1009 hPa | 0 mm | - | - | - |
| 1777929847 | 15.56° C | 49% | 1009 hPa | 0 mm | - | - | - |
| 1777929727 | 15.56° C | 48% | 1009 hPa | 0 mm | - | - | - |
| 1777929610 | 15.56° C | 48% | 1009 hPa | 0 mm | - | - | - |
| 1777929246 | 15.56° C | 49% | 1009 hPa | 0 mm | - | - | - |
| 1777927566 | 16.11° C | 48% | 1009 hPa | 0 mm | - | - | - |
| 1777927086 | 16.11° C | 47% | 1009 hPa | 0 mm | - | - | - |
| 1777926847 | 16.11° C | 47% | 1009 hPa | 0 mm | - | - | - |
| 1777926011 | 16.11° C | 47% | 1009 hPa | 0 mm | - | - | - |
| 1777925887 | 16.11° C | 47% | 1009 hPa | 0 mm | - | - | - |
| 1777925767 | 16.11° C | 47% | 1009 hPa | 0 mm | - | - | - |
| 1777925527 | 16.11° C | 48% | 1009 hPa | 0 mm | - | - | - |
| 1777924566 | 16.11° C | 50% | 1010 hPa | 0 mm | - | - | - |
| 1777923366 | 17.22° C | 47% | 1010 hPa | 0 mm | - | - | - |
| 1777921222 | 16.67° C | 48% | 1010 hPa | 0 mm | - | - | - |
| 1777920848 | 16.67° C | 48% | 1010 hPa | 0 mm | - | - | - |
| 1777920727 | 17.22° C | 47% | 1010 hPa | 0 mm | - | - | - |
| 1777920487 | 17.78° C | 43% | 1010 hPa | 0 mm | - | - | - |
| 1777917367 | 20° C | 39% | 1009 hPa | 0 mm | - | - | - |
| 1777917127 | 20° C | 39% | 1009 hPa | 0 mm | - | - | - |
| 1777917012 | 20° C | 38% | 1009 hPa | 0 mm | - | - | - |
| 1777916411 | 20.56° C | 39% | 1009 hPa | 0 mm | - | - | - |
| 1777916286 | 20.56° C | 38% | 1009 hPa | 0 mm | - | - | - |
| 1777916166 | 20.56° C | 38% | 1009 hPa | 0 mm | - | - | - |
| 1777915447 | 21.11° C | 36% | 1009 hPa | 0 mm | - | - | - |
* Rain latest hour (hover to see other rain measurements)
** Current wind speed in m/s (hover to see current wind gust speed)